createdAt,value
2023-04-27T00:01:28.545Z,96866.72
2023-04-27T00:03:33.494Z,96863.56
2023-04-27T00:05:39.644Z,96864.63
2023-04-27T00:07:44.628Z,96862.75
2023-04-27T00:09:52.237Z,96862.75
2023-04-27T00:11:57.034Z,96859.34
2023-04-27T00:14:01.866Z,96860.41
2023-04-27T00:16:07.004Z,96859.34
2023-04-27T00:18:11.778Z,96862.75
2023-04-27T00:20:16.774Z,96862.00
2023-04-27T00:22:21.717Z,96860.41
2023-04-27T00:24:26.568Z,96864.91
2023-04-27T00:26:33.966Z,96872.00
2023-04-27T00:28:38.900Z,96867.81
2023-04-27T00:30:45.148Z,96865.19
2023-04-27T00:32:50.715Z,96858.31
2023-04-27T00:34:55.722Z,96860.44
2023-04-27T00:37:00.610Z,96858.84
2023-04-27T00:39:06.677Z,96853.84
2023-04-27T00:41:11.677Z,96852.25
2023-04-27T00:43:19.011Z,96854.91
2023-04-27T00:45:23.948Z,96850.66
2023-04-27T00:47:29.019Z,96854.66
2023-04-27T00:49:33.797Z,96851.22
2023-04-27T00:51:38.484Z,96848.06
2023-04-27T00:53:43.832Z,96856.00
2023-04-27T00:55:49.763Z,96851.50
2023-04-27T00:57:54.925Z,96853.34
2023-04-27T01:00:05.185Z,96854.41
2023-04-27T01:02:09.978Z,96854.41
2023-04-27T01:04:15.079Z,96850.19
2023-04-27T01:06:20.165Z,96855.72
2023-04-27T01:08:25.273Z,96847.81
2023-04-27T01:10:30.161Z,96856.00
2023-04-27T01:12:34.955Z,96858.63
2023-04-27T01:14:42.009Z,96852.59
2023-04-27T01:16:49.285Z,96857.09
2023-04-27T01:18:54.065Z,96857.84
2023-04-27T01:21:00.414Z,96856.28
2023-04-27T01:23:05.178Z,96851.81
2023-04-27T01:25:13.214Z,96844.16
2023-04-27T01:27:17.974Z,96847.84
2023-04-27T01:29:22.830Z,96847.06
2023-04-27T01:31:27.632Z,96845.75
2023-04-27T01:33:32.437Z,96851.81
2023-04-27T01:35:37.292Z,96850.22
2023-04-27T01:37:42.139Z,96855.50
2023-04-27T01:39:48.448Z,96851.31
2023-04-27T01:41:58.268Z,96849.72
2023-04-27T01:44:03.479Z,96849.72
2023-04-27T01:46:09.518Z,96849.22
2023-04-27T01:48:14.482Z,96847.63
2023-04-27T01:50:21.980Z,96852.13
2023-04-27T01:52:26.752Z,96855.81
2023-04-27T01:54:33.394Z,96851.84
2023-04-27T01:56:38.189Z,96850.53
2023-04-27T01:58:46.359Z,96859.53
2023-04-27T02:00:51.744Z,96856.09
2023-04-27T02:02:57.746Z,96848.72
2023-04-27T02:05:02.630Z,96850.31
2023-04-27T02:07:07.419Z,96856.63
2023-04-27T02:09:13.288Z,96855.84
2023-04-27T02:11:19.059Z,96861.91
2023-04-27T02:13:23.800Z,96857.69
2023-04-27T02:15:31.230Z,96852.41
2023-04-27T02:17:38.286Z,96856.63
2023-04-27T02:19:43.007Z,96855.03
2023-04-27T02:21:47.718Z,96858.47
2023-04-27T02:23:52.452Z,96860.06
2023-04-27T02:25:57.324Z,96859.00
2023-04-27T02:28:02.132Z,96862.44
2023-04-27T02:30:08.882Z,96861.63
2023-04-27T02:32:16.607Z,96866.41
2023-04-27T02:34:21.318Z,96861.91
2023-04-27T02:36:26.079Z,96868.00
2023-04-27T02:38:33.142Z,96866.41
2023-04-27T02:40:37.855Z,96865.34
2023-04-27T02:42:44.435Z,96858.47
2023-04-27T02:44:49.770Z,96856.63
2023-04-27T02:46:54.670Z,96858.47
2023-04-27T02:49:03.044Z,96868.22
2023-04-27T02:51:08.625Z,96864.81
2023-04-27T02:53:14.076Z,96864.03
2023-04-27T02:55:21.548Z,96865.09
2023-04-27T02:57:26.401Z,96866.94
2023-04-27T02:59:31.342Z,96868.22
2023-04-27T03:01:36.810Z,96867.72
2023-04-27T03:03:41.864Z,96872.19
2023-04-27T03:05:49.332Z,96868.22
2023-04-27T03:07:54.026Z,96884.06
2023-04-27T03:09:58.701Z,96873.00
2023-04-27T03:12:03.506Z,96882.75
2023-04-27T03:14:09.126Z,96875.63
2023-04-27T03:16:14.435Z,96879.59
2023-04-27T03:18:19.154Z,96882.50
2023-04-27T03:20:25.000Z,96883.53
2023-04-27T03:22:34.274Z,96883.81
2023-04-27T03:24:40.658Z,96887.25
2023-04-27T03:26:45.532Z,96884.06
2023-04-27T03:28:50.313Z,96884.06
2023-04-27T03:30:54.983Z,96888.56
2023-04-27T03:32:59.990Z,96888.06
2023-04-27T03:35:03.111Z,96892.53
2023-04-27T03:37:07.820Z,96891.22
2023-04-27T03:39:17.694Z,96898.88
2023-04-27T03:41:23.229Z,96890.72
2023-04-27T03:43:28.459Z,96899.94
2023-04-27T03:45:33.245Z,96900.47
2023-04-27T03:47:38.094Z,96893.88
2023-04-27T03:49:42.925Z,96894.41
2023-04-27T03:51:47.728Z,96890.97
2023-04-27T03:53:53.168Z,96895.47
2023-04-27T03:56:00.969Z,96890.97
2023-04-27T03:58:06.331Z,96888.59
2023-04-27T04:00:14.510Z,96894.13
2023-04-27T04:02:19.450Z,96895.47
2023-04-27T04:04:24.873Z,96896.25
2023-04-27T04:06:31.328Z,96902.31
2023-04-27T04:08:36.028Z,96908.38
2023-04-27T04:10:40.998Z,96908.13
2023-04-27T04:12:49.133Z,96908.63
2023-04-27T04:14:54.760Z,96911.81
2023-04-27T04:16:59.814Z,96915.78
2023-04-27T04:19:04.599Z,96918.69
2023-04-27T04:21:09.348Z,96924.72
2023-04-27T04:23:14.895Z,96920.22
2023-04-27T04:25:20.933Z,96923.91
2023-04-27T04:27:25.761Z,96929.44
2023-04-27T04:29:33.808Z,96927.06
2023-04-27T04:31:38.688Z,96933.66
2023-04-27T04:33:43.423Z,96939.97
2023-04-27T04:35:48.227Z,96937.06
2023-04-27T04:37:52.974Z,96942.59
2023-04-27T04:39:58.657Z,96946.81
2023-04-27T04:42:04.192Z,96945.47
2023-04-27T04:44:10.262Z,96949.19
2023-04-27T04:46:17.751Z,96942.34
2023-04-27T04:48:22.700Z,96945.75
2023-04-27T04:50:27.416Z,96941.56
2023-04-27T04:52:32.164Z,96947.34
2023-04-27T04:54:37.150Z,96949.72
2023-04-27T04:56:42.326Z,96940.75
2023-04-27T04:58:47.075Z,96946.56
2023-04-27T05:00:51.818Z,96949.72
2023-04-27T05:03:01.675Z,96942.63
2023-04-27T05:05:07.424Z,96941.31
2023-04-27T05:07:14.720Z,96942.59
2023-04-27T05:09:20.187Z,96942.09
2023-04-27T05:11:25.081Z,96944.47
2023-04-27T05:13:29.833Z,96943.69
2023-04-27T05:15:34.504Z,96945.81
2023-04-27T05:17:39.330Z,96949.75
2023-04-27T05:19:46.734Z,96956.59
2023-04-27T05:21:51.597Z,96950.28
2023-04-27T05:23:56.297Z,96953.44
2023-04-27T05:26:01.047Z,96955.28
2023-04-27T05:28:05.756Z,96955.53
2023-04-27T05:30:12.294Z,96963.97
2023-04-27T05:32:17.282Z,96965.56
2023-04-27T05:34:22.306Z,96972.41
2023-04-27T05:36:29.990Z,96966.88
2023-04-27T05:38:36.305Z,96960.31
2023-04-27T05:40:41.085Z,96961.59
2023-04-27T05:42:45.805Z,96960.28
2023-04-27T05:44:50.581Z,96971.13
2023-04-27T05:46:55.297Z,96974.78
2023-04-27T05:48:59.967Z,96976.13
2023-04-27T05:51:05.619Z,96969.53
2023-04-27T05:53:13.194Z,96976.13
2023-04-27T05:55:18.073Z,96972.19
2023-04-27T05:57:22.924Z,96979.56
2023-04-27T05:59:27.735Z,96980.84
2023-04-27T06:01:32.826Z,96981.91
2023-04-27T06:03:40.554Z,96988.25
2023-04-27T06:05:45.968Z,96987.97
2023-04-27T06:07:50.978Z,96995.09
2023-04-27T06:09:58.543Z,96993.00
2023-04-27T06:12:04.532Z,96998.53
2023-04-27T06:14:09.640Z,96989.31
2023-04-27T06:16:14.370Z,96999.06
2023-04-27T06:18:19.189Z,96995.09
2023-04-27T06:20:24.379Z,96992.47
2023-04-27T06:22:29.367Z,96993.00
2023-04-27T06:24:36.529Z,97000.13
2023-04-27T06:26:43.952Z,96986.66
2023-04-27T06:28:48.940Z,96993.78
2023-04-27T06:30:53.626Z,96995.63
2023-04-27T06:32:58.401Z,96994.81
2023-04-27T06:35:03.125Z,96993.25
2023-04-27T06:37:08.019Z,96994.81
2023-04-27T06:39:13.187Z,96992.19
2023-04-27T06:41:18.188Z,96994.81
2023-04-27T06:43:25.608Z,96998.78
2023-04-27T06:45:30.762Z,96999.31
2023-04-27T06:47:35.759Z,97000.09
2023-04-27T06:49:40.615Z,96995.59
2023-04-27T06:51:46.830Z,96998.78
2023-04-27T06:53:51.837Z,96992.44
2023-04-27T06:55:56.588Z,97000.34
2023-04-27T06:58:01.325Z,96995.59
2023-04-27T07:00:10.832Z,96995.09
2023-04-27T07:02:16.494Z,96992.69
2023-04-27T07:04:21.306Z,97006.13
2023-04-27T07:06:26.869Z,97005.63
2023-04-27T07:08:31.603Z,97010.09
2023-04-27T07:10:36.546Z,97005.84
2023-04-27T07:12:41.389Z,96999.22
2023-04-27T07:14:46.440Z,97008.19
2023-04-27T07:16:53.714Z,97003.19
2023-04-27T07:18:58.480Z,97005.78
2023-04-27T07:21:03.170Z,96998.91
2023-04-27T07:23:08.202Z,96998.91
2023-04-27T07:25:13.091Z,96999.91
2023-04-27T07:27:17.898Z,96999.91
2023-04-27T07:29:26.836Z,96995.94
2023-04-27T07:31:32.311Z,96999.31
2023-04-27T07:33:39.602Z,96999.59
2023-04-27T07:35:44.494Z,96990.84
2023-04-27T07:37:49.243Z,97000.59
2023-04-27T07:39:54.984Z,96999.00
2023-04-27T07:41:59.699Z,96997.66
2023-04-27T07:44:04.594Z,97004.75
2023-04-27T07:46:09.875Z,97003.16
2023-04-27T07:48:14.792Z,96997.81
2023-04-27T07:50:25.464Z,97006.78
2023-04-27T07:52:30.822Z,96997.75
2023-04-27T07:54:35.553Z,97007.56
2023-04-27T07:56:40.618Z,97005.94
2023-04-27T07:58:46.215Z,97005.13
2023-04-27T08:00:51.102Z,97003.25
2023-04-27T08:02:57.184Z,97007.69
2023-04-27T08:05:03.159Z,97005.00
2023-04-27T08:07:10.996Z,97012.09
2023-04-27T08:09:16.280Z,97002.84
2023-04-27T08:11:21.602Z,97004.66
2023-04-27T08:13:26.543Z,97005.19
2023-04-27T08:15:31.290Z,97009.63
2023-04-27T08:17:36.701Z,97013.59
2023-04-27T08:19:41.769Z,97018.31
2023-04-27T08:21:46.559Z,97018.81
2023-04-27T08:23:53.814Z,97011.13
2023-04-27T08:25:58.593Z,97009.75
2023-04-27T08:28:03.437Z,97009.22
2023-04-27T08:30:09.677Z,97015.81
2023-04-27T08:32:14.377Z,97012.38
2023-04-27T08:34:19.153Z,97015.53
2023-04-27T08:36:26.353Z,97014.97
2023-04-27T08:38:31.612Z,97014.72
2023-04-27T08:40:38.963Z,97010.69
2023-04-27T08:42:56.289Z,97015.44
2023-04-27T08:45:01.089Z,97006.97
2023-04-27T08:47:07.328Z,97004.25
2023-04-27T08:49:13.703Z,97012.16
2023-04-27T08:51:20.665Z,97013.16
2023-04-27T08:53:26.840Z,97013.09
2023-04-27T08:55:31.618Z,97005.09
2023-04-27T08:57:39.046Z,97011.13
2023-04-27T08:59:44.644Z,97010.03
2023-04-27T09:01:51.269Z,97015.53
2023-04-27T09:04:00.286Z,97008.38
2023-04-27T09:06:06.162Z,97008.31
2023-04-27T09:08:11.552Z,97004.84
2023-04-27T09:10:16.253Z,97002.66
2023-04-27T09:12:22.315Z,97009.47
2023-04-27T09:14:36.168Z,97007.53
2023-04-27T09:16:41.238Z,97002.69
2023-04-27T09:18:46.775Z,97002.34
2023-04-27T09:20:52.962Z,96992.66
2023-04-27T09:22:58.796Z,96997.88
2023-04-27T09:25:04.270Z,96995.13
2023-04-27T09:27:10.102Z,97001.84
2023-04-27T09:29:15.393Z,97000.91
2023-04-27T09:31:23.655Z,97000.75
2023-04-27T09:33:29.892Z,96996.88
2023-04-27T09:35:36.231Z,96999.34
2023-04-27T09:37:41.036Z,97004.22
2023-04-27T09:39:46.102Z,97003.75
2023-04-27T09:41:52.220Z,96999.06
2023-04-27T09:43:58.355Z,96999.09
2023-04-27T09:46:03.199Z,96998.31
2023-04-27T09:48:11.735Z,96988.78
2023-04-27T09:50:17.379Z,96989.56
2023-04-27T09:52:22.210Z,96997.50
2023-04-27T09:54:30.244Z,96991.91
2023-04-27T09:56:55.385Z,96977.81
2023-04-27T09:59:17.014Z,96982.00
2023-04-27T10:01:28.457Z,96977.25
2023-04-27T10:03:45.925Z,96968.13
2023-04-27T10:06:28.834Z,96962.91
2023-04-27T10:08:33.840Z,96964.91
2023-04-27T10:10:51.916Z,96966.56
2023-04-27T10:13:03.848Z,96958.97
2023-04-27T10:15:16.695Z,96958.72
2023-04-27T10:17:22.250Z,96961.94
2023-04-27T10:19:30.006Z,96958.06
2023-04-27T10:21:35.076Z,96956.03
2023-04-27T10:23:49.905Z,96967.38
2023-04-27T10:25:55.042Z,96964.09
2023-04-27T10:28:01.908Z,96957.03
2023-04-27T10:30:13.234Z,96955.16
2023-04-27T10:32:23.954Z,96960.16
2023-04-27T10:34:31.407Z,96963.13
2023-04-27T10:36:41.127Z,96960.59
2023-04-27T10:38:46.014Z,96957.63
2023-04-27T10:40:58.540Z,96949.47
2023-04-27T10:43:11.826Z,96949.16
2023-04-27T10:45:16.687Z,96950.41
2023-04-27T10:47:23.825Z,96942.06
2023-04-27T10:49:33.538Z,96943.63
2023-04-27T10:51:38.587Z,96949.13
2023-04-27T10:53:43.273Z,96938.75
2023-04-27T10:55:48.005Z,96941.88
2023-04-27T10:57:53.654Z,96950.34
2023-04-27T10:59:58.376Z,96949.66
2023-04-27T11:02:04.236Z,96943.97
2023-04-27T11:04:09.213Z,96949.28
2023-04-27T11:06:17.704Z,96943.09
2023-04-27T11:08:22.865Z,96942.28
2023-04-27T11:10:28.181Z,96945.66
2023-04-27T11:12:35.161Z,96954.44
2023-04-27T11:14:40.113Z,96947.81
2023-04-27T11:16:49.866Z,96944.50
2023-04-27T11:18:54.747Z,96949.66
2023-04-27T11:21:09.945Z,96948.69
2023-04-27T11:23:26.083Z,96952.13
2023-04-27T11:25:31.597Z,96940.00
2023-04-27T11:27:40.562Z,96947.72
2023-04-27T11:29:45.463Z,96947.06
2023-04-27T11:31:52.102Z,96945.97
2023-04-27T11:33:57.052Z,96944.84
2023-04-27T11:36:02.248Z,96948.41
2023-04-27T11:38:07.073Z,96946.66
2023-04-27T11:40:16.748Z,96952.59
2023-04-27T11:42:23.472Z,96953.97
2023-04-27T11:44:29.283Z,96944.66
2023-04-27T11:46:34.201Z,96943.66
2023-04-27T11:48:40.479Z,96957.63
2023-04-27T11:50:49.158Z,96950.81
2023-04-27T11:52:54.211Z,96953.63
2023-04-27T11:54:59.365Z,96948.53
2023-04-27T11:57:11.119Z,96956.69
2023-04-27T11:59:23.190Z,96951.00
2023-04-27T12:01:36.963Z,96947.22
2023-04-27T12:03:43.493Z,96945.00
2023-04-27T12:05:52.008Z,96952.25
2023-04-27T12:07:57.335Z,96948.00
2023-04-27T12:10:02.057Z,96950.22
2023-04-27T12:12:10.352Z,96956.69
2023-04-27T12:14:15.277Z,96954.00
2023-04-27T12:16:22.336Z,96958.69
2023-04-27T12:18:27.343Z,96962.03
2023-04-27T12:20:32.254Z,96956.00
2023-04-27T12:22:37.766Z,96949.59
2023-04-27T12:24:42.995Z,96958.59
2023-04-27T12:26:48.020Z,96967.94
2023-04-27T12:28:56.366Z,96956.19
2023-04-27T12:31:01.920Z,96956.28
2023-04-27T12:33:11.303Z,96959.13
2023-04-27T12:35:16.568Z,96960.00
2023-04-27T12:37:21.830Z,96955.13
2023-04-27T12:39:26.910Z,96959.13
2023-04-27T12:41:31.682Z,96955.41
2023-04-27T12:43:37.571Z,96948.63
2023-04-27T12:45:45.362Z,96950.56
2023-04-27T12:48:01.621Z,96956.41
2023-04-27T12:50:07.922Z,96953.78
2023-04-27T12:52:13.099Z,96955.06
2023-04-27T12:54:17.974Z,96957.94
2023-04-27T12:56:22.873Z,96948.22
2023-04-27T12:58:27.646Z,96951.50
2023-04-27T13:00:32.387Z,96938.78
2023-04-27T13:02:40.052Z,96942.09
2023-04-27T13:04:45.042Z,96944.00
2023-04-27T13:06:50.065Z,96943.22
2023-04-27T13:08:54.829Z,96939.31
2023-04-27T13:10:59.773Z,96940.41
2023-04-27T13:13:04.611Z,96935.69
2023-04-27T13:15:10.912Z,96925.97
2023-04-27T13:17:15.718Z,96926.63
2023-04-27T13:19:23.393Z,96929.94
2023-04-27T13:21:29.670Z,96930.22
2023-04-27T13:23:34.533Z,96927.44
2023-04-27T13:25:39.406Z,96918.47
2023-04-27T13:27:44.216Z,96921.00
2023-04-27T13:29:51.262Z,96931.69
2023-04-27T13:31:56.212Z,96920.53
2023-04-27T13:34:02.223Z,96917.38
2023-04-27T13:36:10.590Z,96910.78
2023-04-27T13:38:15.293Z,96914.53
2023-04-27T13:40:20.109Z,96914.09
2023-04-27T13:42:29.719Z,96916.75
2023-04-27T13:44:34.736Z,96907.19
2023-04-27T13:46:39.836Z,96901.38
2023-04-27T13:48:44.694Z,96920.41
2023-04-27T13:50:49.551Z,96911.44
2023-04-27T13:52:57.724Z,96905.97
2023-04-27T13:55:02.600Z,96906.59
2023-04-27T13:57:07.393Z,96917.13
2023-04-27T13:59:12.295Z,96916.34
2023-04-27T14:01:17.327Z,96912.41
2023-04-27T14:03:23.002Z,96912.41
2023-04-27T14:05:27.962Z,96903.63
2023-04-27T14:07:34.429Z,96907.72
2023-04-27T14:09:42.168Z,96901.44
2023-04-27T14:11:56.547Z,96901.44
2023-04-27T14:14:01.983Z,96896.75
2023-04-27T14:16:07.355Z,96891.72
2023-04-27T14:18:12.701Z,96893.59
2023-04-27T14:20:17.942Z,96886.22
2023-04-27T14:22:22.744Z,96889.22
2023-04-27T14:24:27.893Z,96886.84
2023-04-27T14:26:35.301Z,96881.06
2023-04-27T14:28:40.035Z,96873.84
2023-04-27T14:30:45.089Z,96883.72
2023-04-27T14:32:49.891Z,96876.03
2023-04-27T14:34:54.788Z,96875.25
2023-04-27T14:36:59.647Z,96877.91
2023-04-27T14:39:04.670Z,96875.56
2023-04-27T14:41:09.977Z,96873.69
2023-04-27T14:43:18.110Z,96872.44
2023-04-27T14:45:24.216Z,96872.44
2023-04-27T14:47:29.246Z,96875.41
2023-04-27T14:49:34.075Z,96881.53
2023-04-27T14:51:40.573Z,96876.19
2023-04-27T14:53:46.838Z,96876.19
2023-04-27T14:55:51.852Z,96890.03
2023-04-27T14:57:56.828Z,96885.47
2023-04-27T15:00:06.316Z,96887.34
2023-04-27T15:02:11.131Z,96883.25
2023-04-27T15:04:16.114Z,96883.25
2023-04-27T15:06:22.106Z,96884.81
2023-04-27T15:08:26.932Z,96881.38
2023-04-27T15:10:31.682Z,96882.94
2023-04-27T15:12:36.465Z,96885.28
2023-04-27T15:14:41.187Z,96883.72
2023-04-27T15:16:48.560Z,96881.84
2023-04-27T15:18:53.488Z,96881.53
2023-04-27T15:20:59.098Z,96887.16
2023-04-27T15:23:03.843Z,96884.50
2023-04-27T15:25:09.773Z,96881.84
2023-04-27T15:27:14.717Z,96881.84
2023-04-27T15:29:20.142Z,96871.94
2023-04-27T15:31:24.938Z,96875.41
2023-04-27T15:33:32.523Z,96876.97
2023-04-27T15:35:39.072Z,96883.88
2023-04-27T15:37:43.794Z,96870.22
2023-04-27T15:39:48.529Z,96880.09
2023-04-27T15:41:53.590Z,96875.53
2023-04-27T15:43:58.779Z,96875.53
2023-04-27T15:46:06.939Z,96874.78
2023-04-27T15:48:11.734Z,96874.78
2023-04-27T15:50:19.223Z,96873.19
2023-04-27T15:52:23.989Z,96870.53
2023-04-27T15:54:29.034Z,96870.84
2023-04-27T15:56:33.871Z,96869.75
2023-04-27T15:58:38.773Z,96870.84
2023-04-27T16:00:43.538Z,96873.50
2023-04-27T16:02:48.717Z,96873.06
2023-04-27T16:04:53.523Z,96877.59
2023-04-27T16:07:01.243Z,96867.56
2023-04-27T16:09:09.764Z,96871.34
2023-04-27T16:11:16.265Z,96871.66
2023-04-27T16:13:20.966Z,96870.41
2023-04-27T16:15:25.832Z,96869.91
2023-04-27T16:17:33.361Z,96862.53
2023-04-27T16:19:38.130Z,96861.28
2023-04-27T16:21:42.869Z,96859.25
2023-04-27T16:23:50.237Z,96859.88
2023-04-27T16:25:54.960Z,96857.09
2023-04-27T16:28:01.653Z,96858.81
2023-04-27T16:30:07.585Z,96862.25
2023-04-27T16:32:12.731Z,96855.19
2023-04-27T16:34:17.499Z,96857.09
2023-04-27T16:36:22.245Z,96853.63
2023-04-27T16:38:27.045Z,96849.88
2023-04-27T16:40:34.375Z,96852.53
2023-04-27T16:42:39.159Z,96851.75
2023-04-27T16:44:43.927Z,96855.19
2023-04-27T16:46:48.922Z,96849.09
2023-04-27T16:48:53.698Z,96855.19
2023-04-27T16:50:58.480Z,96866.63
2023-04-27T16:53:09.729Z,96861.63
2023-04-27T16:55:14.547Z,96861.63
2023-04-27T16:57:22.799Z,96869.16
2023-04-27T16:59:27.541Z,96872.16
2023-04-27T17:01:32.468Z,96866.59
2023-04-27T17:03:37.375Z,96862.41
2023-04-27T17:05:42.311Z,96865.38
2023-04-27T17:07:47.115Z,96859.25
2023-04-27T17:09:51.913Z,96853.13
2023-04-27T17:11:56.719Z,96847.81
2023-04-27T17:14:04.132Z,96842.00
2023-04-27T17:16:11.917Z,96848.56
2023-04-27T17:18:16.894Z,96853.13
2023-04-27T17:20:21.975Z,96853.13
2023-04-27T17:22:27.183Z,96857.38
2023-04-27T17:24:31.976Z,96855.47
2023-04-27T17:26:37.372Z,96845.59
2023-04-27T17:28:42.099Z,96842.16
2023-04-27T17:30:49.626Z,96839.47
2023-04-27T17:32:54.822Z,96838.41
2023-04-27T17:35:00.144Z,96843.72
2023-04-27T17:37:04.994Z,96847.47
2023-04-27T17:39:09.933Z,96836.03
2023-04-27T17:41:14.770Z,96847.47
2023-04-27T17:43:19.652Z,96854.72
2023-04-27T17:45:26.580Z,96852.03
2023-04-27T17:47:34.083Z,96842.47
2023-04-27T17:49:39.045Z,96841.69
2023-04-27T17:51:43.799Z,96847.03
2023-04-27T17:53:48.607Z,96850.00
2023-04-27T17:55:53.583Z,96843.88
2023-04-27T17:57:58.395Z,96848.75
2023-04-27T18:00:03.199Z,96851.72
2023-04-27T18:02:14.586Z,96849.69
2023-04-27T18:04:22.334Z,96842.31
2023-04-27T18:06:27.952Z,96851.88
2023-04-27T18:08:32.901Z,96843.72
2023-04-27T18:10:37.865Z,96841.38
2023-04-27T18:12:42.799Z,96842.47
2023-04-27T18:14:47.598Z,96842.00
2023-04-27T18:16:52.761Z,96840.44
2023-04-27T18:18:57.702Z,96842.63
2023-04-27T18:21:06.863Z,96844.03
2023-04-27T18:23:12.327Z,96850.78
2023-04-27T18:25:17.252Z,96855.66
2023-04-27T18:27:21.986Z,96856.25
2023-04-27T18:29:26.764Z,96858.75
2023-04-27T18:31:31.861Z,96870.50
2023-04-27T18:33:36.760Z,96871.94
2023-04-27T18:35:41.621Z,96876.31
2023-04-27T18:37:49.028Z,96875.03
2023-04-27T18:39:53.823Z,96873.47
2023-04-27T18:41:58.662Z,96871.41
2023-04-27T18:44:07.518Z,96881.94
2023-04-27T18:46:12.510Z,96882.56
2023-04-27T18:48:17.421Z,96876.72
2023-04-27T18:50:22.512Z,96883.47
2023-04-27T18:52:27.327Z,96875.31
2023-04-27T18:54:34.998Z,96883.91
2023-04-27T18:56:39.769Z,96884.53
2023-04-27T18:58:44.602Z,96882.50
2023-04-27T19:00:49.458Z,96882.31
2023-04-27T19:02:54.778Z,96882.94
2023-04-27T19:05:11.643Z,96884.31
2023-04-27T19:07:18.116Z,96889.50
2023-04-27T19:09:22.926Z,96883.69
2023-04-27T19:11:30.718Z,96888.81
2023-04-27T19:13:36.200Z,96886.78
2023-04-27T19:15:41.673Z,96884.41
2023-04-27T19:17:48.764Z,96898.03
2023-04-27T19:19:57.397Z,96899.72
2023-04-27T19:22:03.664Z,96898.16
2023-04-27T19:24:08.919Z,96894.53
2023-04-27T19:26:14.492Z,96890.63
2023-04-27T19:28:23.555Z,96890.44
2023-04-27T19:30:28.400Z,96885.72
2023-04-27T19:32:34.419Z,96893.50
2023-04-27T19:34:39.325Z,96890.69
2023-04-27T19:36:45.819Z,96897.41
2023-04-27T19:38:50.856Z,96894.59
2023-04-27T19:40:55.646Z,96904.72
2023-04-27T19:43:00.806Z,96897.34
2023-04-27T19:45:09.820Z,96894.53
2023-04-27T19:47:14.735Z,96899.03
2023-04-27T19:49:19.552Z,96896.69
2023-04-27T19:51:24.424Z,96893.25
2023-04-27T19:53:29.430Z,96889.00
2023-04-27T19:55:34.928Z,96891.97
2023-04-27T19:57:40.058Z,96890.44
2023-04-27T19:59:44.793Z,96897.59
2023-04-27T20:01:52.582Z,96899.78
2023-04-27T20:03:57.685Z,96897.13
2023-04-27T20:06:02.927Z,96899.00
2023-04-27T20:08:08.016Z,96896.63
2023-04-27T20:10:13.106Z,96895.84
2023-04-27T20:12:37.371Z,96891.63
2023-04-27T20:14:43.172Z,96892.72
2023-04-27T20:16:48.069Z,96888.50
2023-04-27T20:18:55.634Z,96889.56
2023-04-27T20:21:00.506Z,96888.78
2023-04-27T20:23:05.568Z,96889.09
2023-04-27T20:25:14.104Z,96888.28
2023-04-27T20:27:19.045Z,96883.28
2023-04-27T20:29:24.248Z,96886.25
2023-04-27T20:31:29.121Z,96882.81
2023-04-27T20:33:34.003Z,96880.44
2023-04-27T20:35:41.429Z,96877.59
2023-04-27T20:37:47.304Z,96879.78
2023-04-27T20:39:52.282Z,96872.41
2023-04-27T20:41:57.168Z,96870.06
2023-04-27T20:44:02.898Z,96874.88
2023-04-27T20:46:07.844Z,96864.25
2023-04-27T20:48:13.472Z,96866.13
2023-04-27T20:50:18.544Z,96866.44
2023-04-27T20:52:29.451Z,96869.38
2023-04-27T20:54:36.482Z,96860.63
2023-04-27T20:56:41.363Z,96862.50
2023-04-27T20:58:46.110Z,96856.41
2023-04-27T21:00:51.058Z,96859.06
2023-04-27T21:02:56.148Z,96861.72
2023-04-27T21:05:02.000Z,96859.34
2023-04-27T21:07:06.942Z,96861.25
2023-04-27T21:09:14.762Z,96861.25
2023-04-27T21:11:20.282Z,96871.88
2023-04-27T21:13:25.142Z,96862.31
2023-04-27T21:15:30.021Z,96858.09
2023-04-27T21:17:34.927Z,96864.47
2023-04-27T21:19:39.747Z,96864.47
2023-04-27T21:21:44.783Z,96868.25
2023-04-27T21:23:54.346Z,96856.03
2023-04-27T21:26:10.033Z,96870.69
2023-04-27T21:28:15.393Z,96869.16
2023-04-27T21:30:20.244Z,96872.88
2023-04-27T21:32:25.031Z,96876.63
2023-04-27T21:34:29.986Z,96865.50
2023-04-27T21:36:35.052Z,96866.56
2023-04-27T21:38:40.250Z,96865.28
2023-04-27T21:40:45.048Z,96857.63
2023-04-27T21:42:53.023Z,96848.66
2023-04-27T21:44:59.802Z,96850.84
2023-04-27T21:47:04.633Z,96848.97
2023-04-27T21:49:09.412Z,96845.34
2023-04-27T21:51:14.314Z,96842.69
2023-04-27T21:53:19.078Z,96839.53
2023-04-27T21:55:24.376Z,96843.59
2023-04-27T21:57:29.182Z,96845.25
2023-04-27T21:59:36.728Z,96841.06
2023-04-27T22:01:41.577Z,96842.44
2023-04-27T22:03:46.724Z,96844.31
2023-04-27T22:05:52.923Z,96843.03
2023-04-27T22:07:58.049Z,96842.25
2023-04-27T22:10:02.967Z,96836.44
2023-04-27T22:12:08.190Z,96845.00
2023-04-27T22:14:13.107Z,96840.00
2023-04-27T22:16:20.774Z,96847.50
2023-04-27T22:18:25.873Z,96844.03
2023-04-27T22:20:30.661Z,96837.44
2023-04-27T22:22:35.599Z,96836.97
2023-04-27T22:24:41.033Z,96837.25
2023-04-27T22:26:45.887Z,96834.91
2023-04-27T22:28:50.769Z,96834.44
2023-04-27T22:30:55.716Z,96832.03
2023-04-27T22:33:04.938Z,96826.56
2023-04-27T22:35:24.890Z,96826.56
2023-04-27T22:37:32.018Z,96827.16
2023-04-27T22:39:37.011Z,96817.59
2023-04-27T22:41:41.961Z,96826.19
2023-04-27T22:43:46.726Z,96823.81
2023-04-27T22:45:51.761Z,96821.75
2023-04-27T22:47:57.769Z,96821.00
2023-04-27T22:50:06.279Z,96825.00
2023-04-27T22:52:11.896Z,96821.56
2023-04-27T22:54:16.905Z,96831.09
2023-04-27T22:56:22.697Z,96825.31
2023-04-27T22:58:27.767Z,96821.06
2023-04-27T23:00:32.790Z,96816.84
2023-04-27T23:02:37.769Z,96812.63
2023-04-27T23:04:43.966Z,96808.41
2023-04-27T23:06:53.791Z,96812.13
2023-04-27T23:08:59.291Z,96810.28
2023-04-27T23:11:04.080Z,96808.69
2023-04-27T23:13:11.509Z,96812.94
2023-04-27T23:15:16.672Z,96805.25
2023-04-27T23:17:22.833Z,96804.47
2023-04-27T23:19:27.919Z,96803.69
2023-04-27T23:21:32.853Z,96808.50
2023-04-27T23:23:40.769Z,96802.69
2023-04-27T23:25:45.537Z,96802.22
2023-04-27T23:27:52.273Z,96804.06
2023-04-27T23:29:57.794Z,96804.38
2023-04-27T23:32:05.274Z,96802.78
2023-04-27T23:34:10.062Z,96801.03
2023-04-27T23:36:15.146Z,96800.25
2023-04-27T23:38:19.946Z,96797.91
2023-04-27T23:40:27.376Z,96803.22
2023-04-27T23:42:32.310Z,96803.97
2023-04-27T23:44:37.128Z,96803.22
2023-04-27T23:46:41.921Z,96798.50
2023-04-27T23:48:46.825Z,96792.69
2023-04-27T23:50:51.811Z,96792.97
2023-04-27T23:52:56.681Z,96794.84
2023-04-27T23:55:01.650Z,96793.56
2023-04-27T23:57:09.082Z,96787.78
2023-04-27T23:59:15.150Z,96796.53
